Time;durP1;ratioP1;P1;durP2;ratioP2;P2;SDS_P1;SDS_P2;PMS_P1;PMS_P2;Temp;Humidity;BMP_temperature;BMP_pressure;BME280_temperature;BME280_humidity;BME280_pressure;Samples;Min_cycle;Max_cycle;Signal;HPM_P1;HPM_P2
2022/09/02 00:01:41;;;;;;;1.70;1.40;;;;;18.30;97385.80;;;;110790;1250;41190;-67
2022/09/02 00:04:16;;;;;;;2.80;1.50;;;;;18.30;97384.00;;;;110959;1250;41153;-66
2022/09/02 00:06:47;;;;;;;3.70;1.60;;;;;18.30;97386.20;;;;110753;1250;41963;-66
2022/09/02 00:09:18;;;;;;;2.80;1.50;;;;;18.30;97384.40;;;;110705;1250;41147;-66
2022/09/02 00:11:50;;;;;;;2.40;1.50;;;;;18.30;97385.20;;;;110946;1249;41167;-66
2022/09/02 00:14:24;;;;;;;;;;;;;18.30;97381.40;;;;110687;1248;41520;-66
2022/09/02 00:16:53;;;;;;;4.20;1.90;;;;;18.30;97383.20;;;;110749;1249;41169;-66
2022/09/02 00:19:24;;;;;;;3.70;1.60;;;;;18.30;97384.60;;;;110736;1250;42388;-66
2022/09/02 00:21:54;;;;;;;;;;;;;18.30;97383.60;;;;110611;1249;41284;-67
2022/09/02 00:24:25;;;;;;;2.10;1.50;;;;;18.30;97383.20;;;;110669;1249;41133;-66
2022/09/02 00:26:54;;;;;;;3.50;1.70;;;;;18.30;97383.20;;;;110671;1251;42379;-66
2022/09/02 00:29:26;;;;;;;3.90;1.80;;;;;18.30;97386.00;;;;110589;1251;41599;-66
2022/09/02 00:31:56;;;;;;;7.70;2.20;;;;;18.30;97381.60;;;;110863;1250;41610;-67
2022/09/02 00:34:27;;;;;;;3.50;1.70;;;;;18.20;97388.80;;;;110659;1251;41472;-66
2022/09/02 00:36:56;;;;;;;;;;;;;18.20;97385.40;;;;110907;1251;41219;-66
2022/09/02 00:39:26;;;;;;;4.40;1.70;;;;;18.20;97386.00;;;;110842;1250;41619;-66
2022/09/02 00:42:00;;;;;;;5.20;2.10;;;;;18.12;97378.80;;;;110838;1249;41303;-66
2022/09/02 00:44:30;;;;;;;4.90;2.10;;;;;18.18;97386.20;;;;110671;1249;41649;-66
2022/09/02 00:47:03;;;;;;;4.80;2.10;;;;;18.02;97385.00;;;;110634;1250;41161;-67
2022/09/02 00:49:39;;;;;;;4.70;2.00;;;;;18.06;97386.00;;;;110557;1250;41870;-66
2022/09/02 00:52:18;;;;;;;5.80;2.00;;;;;18.10;97388.80;;;;110732;1250;41783;-67
2022/09/02 00:55:01;;;;;;;4.70;2.10;;;;;18.10;97386.80;;;;110757;1251;41147;-66
2022/09/02 00:57:36;;;;;;;4.60;1.90;;;;;18.00;97390.20;;;;110840;1250;41722;-66
2022/09/02 01:00:17;;;;;;;3.30;1.60;;;;;18.00;97389.00;;;;110883;1250;41317;-66
2022/09/02 01:02:52;;;;;;;2.90;1.60;;;;;18.00;97388.20;;;;110931;1250;41156;-67
2022/09/02 01:05:25;;;;;;;4.90;2.00;;;;;18.00;97384.40;;;;110723;1251;41619;-66
2022/09/02 01:07:56;;;;;;;4.10;1.80;;;;;18.00;97385.80;;;;110884;1249;41845;-67
2022/09/02 01:10:33;;;;;;;4.90;2.00;;;;;17.96;97383.00;;;;111016;1250;42030;-68
2022/09/02 01:13:09;;;;;;;5.00;2.00;;;;;17.94;97389.20;;;;111074;1249;42225;-66
2022/09/02 01:15:45;;;;;;;5.00;1.80;;;;;17.90;97393.60;;;;110619;1251;41170;-65
2022/09/02 01:18:18;;;;;;;4.10;2.10;;;;;17.90;97394.20;;;;110756;1250;42139;-66
2022/09/02 01:20:50;;;;;;;4.60;1.90;;;;;17.90;97397.40;;;;110827;1250;41271;-66
2022/09/02 01:23:20;;;;;;;4.50;2.00;;;;;17.90;97397.00;;;;110844;1249;41914;-66
2022/09/02 01:25:51;;;;;;;4.50;1.70;;;;;17.90;97399.80;;;;110857;1249;41378;-66
2022/09/02 01:28:23;;;;;;;4.70;1.90;;;;;17.90;97398.40;;;;110884;1250;41701;-66
2022/09/02 01:30:53;;;;;;;3.40;1.70;;;;;17.90;97405.00;;;;110935;1249;41449;-67
2022/09/02 01:33:23;;;;;;;;;;;;;17.90;97406.60;;;;110976;1249;41496;-65
2022/09/02 01:35:54;;;;;;;3.00;1.60;;;;;17.90;97401.20;;;;110876;1249;41693;-66
2022/09/02 01:38:26;;;;;;;2.40;1.60;;;;;17.90;97399.60;;;;110727;1249;41906;-67
2022/09/02 01:40:58;;;;;;;3.70;1.90;;;;;17.90;97399.60;;;;110825;1250;41151;-67
2022/09/02 01:43:29;;;;;;;3.40;1.70;;;;;17.90;97395.00;;;;110583;1251;41818;-66
2022/09/02 01:45:59;;;;;;;;;;;;;17.90;97392.40;;;;110624;1251;41943;-68
2022/09/02 01:48:31;;;;;;;4.20;1.60;;;;;17.90;97393.80;;;;110757;1250;41181;-67
2022/09/02 01:51:03;;;;;;;3.60;1.80;;;;;17.88;97393.40;;;;110593;1251;41902;-65
2022/09/02 01:53:33;;;;;;;3.60;1.80;;;;;17.90;97395.80;;;;110844;1249;41159;-65
2022/09/02 01:56:04;;;;;;;5.50;1.80;;;;;17.80;97393.60;;;;110630;1250;41172;-65
2022/09/02 01:58:35;;;;;;;3.70;1.70;;;;;17.80;97391.60;;;;110649;1251;41395;-66
2022/09/02 02:01:09;;;;;;;3.70;1.60;;;;;17.80;97394.60;;;;110648;1251;41157;-65
2022/09/02 02:03:40;;;;;;;5.40;1.90;;;;;17.80;97394.80;;;;111000;1250;41142;-65
2022/09/02 02:06:13;;;;;;;3.70;1.70;;;;;17.80;97391.80;;;;110598;1249;41616;-66
2022/09/02 02:08:45;;;;;;;3.20;1.60;;;;;17.80;97392.00;;;;110558;1253;41156;-66
2022/09/02 02:11:23;;;;;;;3.70;1.60;;;;;17.80;97389.20;;;;110763;1251;41151;-67
2022/09/02 02:14:01;;;;;;;3.30;1.60;;;;;17.80;97387.60;;;;110843;1250;41893;-67
2022/09/02 02:16:31;;;;;;;5.30;1.60;;;;;17.80;97389.60;;;;110592;1250;41848;-67
2022/09/02 02:19:03;;;;;;;3.90;1.80;;;;;17.70;97390.60;;;;110611;1249;41553;-67
2022/09/02 02:21:35;;;;;;;3.30;1.60;;;;;17.58;97389.20;;;;110654;1250;41144;-67
2022/09/02 02:24:07;;;;;;;4.80;1.70;;;;;17.60;97391.40;;;;110997;1250;41459;-66
2022/09/02 02:26:37;;;;;;;4.00;1.90;;;;;17.60;97386.60;;;;110854;1250;41821;-66
2022/09/02 02:29:09;;;;;;;5.10;1.80;;;;;17.50;97386.40;;;;110895;1251;41650;-66
2022/09/02 02:31:41;;;;;;;2.80;1.60;;;;;17.50;97386.00;;;;110585;1251;41203;-66
2022/09/02 02:34:13;;;;;;;4.00;1.70;;;;;17.58;97383.80;;;;110681;1250;41181;-66
2022/09/02 02:36:45;;;;;;;6.30;1.70;;;;;17.58;97384.00;;;;110776;1250;41173;-66
2022/09/02 02:39:16;;;;;;;9.50;1.70;;;;;17.58;97385.40;;;;110593;1252;42484;-66
2022/09/02 02:41:47;;;;;;;3.50;1.60;;;;;17.54;97388.40;;;;110698;1251;41264;-66
2022/09/02 02:44:18;;;;;;;3.60;1.80;;;;;17.50;97393.40;;;;110772;1250;41643;-65
2022/09/02 02:46:48;;;;;;;5.80;1.90;;;;;17.40;97392.80;;;;110694;1251;41612;-66
2022/09/02 02:49:18;;;;;;;;;;;;;17.40;97390.40;;;;110752;1251;41157;-66
2022/09/02 02:51:49;;;;;;;2.30;1.40;;;;;17.40;97392.20;;;;110784;1251;42324;-67
2022/09/02 02:54:20;;;;;;;2.60;1.40;;;;;17.40;97395.20;;;;110951;1249;41455;-66
2022/09/02 02:56:50;;;;;;;2.30;1.50;;;;;17.40;97390.40;;;;110868;1249;42172;-65
2022/09/02 02:59:20;;;;;;;2.10;1.40;;;;;17.40;97393.20;;;;110828;1250;41677;-65
2022/09/02 03:01:50;;;;;;;3.30;1.50;;;;;17.40;97386.80;;;;110860;1249;41132;-67
2022/09/02 03:04:20;;;;;;;1.90;1.40;;;;;17.46;97384.60;;;;110869;1249;41266;-65
2022/09/02 03:06:50;;;;;;;4.60;1.60;;;;;17.50;97380.20;;;;110904;1249;41898;-65
2022/09/02 03:09:21;;;;;;;3.00;1.40;;;;;17.50;97384.20;;;;110774;1251;41152;-65
2022/09/02 03:11:53;;;;;;;3.80;1.60;;;;;17.50;97386.40;;;;110800;1250;41330;-66
2022/09/02 03:14:25;;;;;;;4.40;1.50;;;;;17.40;97383.20;;;;110865;1250;41141;-67
2022/09/02 03:16:55;;;;;;;;;;;;;17.26;97381.80;;;;110554;1251;41160;-66
2022/09/02 03:19:26;;;;;;;3.20;1.60;;;;;17.10;97385.40;;;;110742;1251;41972;-66
2022/09/02 03:21:56;;;;;;;3.30;1.50;;;;;17.10;97388.40;;;;110600;1251;41251;-66
2022/09/02 03:24:26;;;;;;;3.80;1.70;;;;;17.10;97390.80;;;;110723;1251;41157;-66
2022/09/02 03:26:57;;;;;;;4.80;2.00;;;;;17.10;97389.80;;;;110639;1251;41184;-66
2022/09/02 03:29:27;;;;;;;6.80;2.00;;;;;17.00;97392.00;;;;110744;1249;41404;-65
2022/09/02 03:31:59;;;;;;;4.10;1.60;;;;;16.94;97392.40;;;;110857;1251;42887;-65
2022/09/02 03:34:31;;;;;;;4.10;1.80;;;;;17.00;97394.40;;;;110607;1251;41386;-66
2022/09/02 03:37:01;;;;;;;3.20;1.50;;;;;17.00;97392.20;;;;110713;1251;41249;-66
2022/09/02 03:39:31;;;;;;;3.30;1.60;;;;;17.00;97396.80;;;;110439;1251;41154;-66
2022/09/02 03:42:00;;;;;;;3.50;1.60;;;;;17.00;97395.20;;;;110620;1251;41169;-66
2022/09/02 03:44:33;;;;;;;3.70;1.70;;;;;17.00;97401.40;;;;110607;1251;41249;-66
2022/09/02 03:47:03;;;;;;;2.50;1.50;;;;;17.00;97401.60;;;;110604;1251;41176;-66
2022/09/02 03:49:33;;;;;;;;;;;;;17.00;97403.60;;;;110805;1251;41144;-66
2022/09/02 03:52:03;;;;;;;3.70;1.70;;;;;17.00;97407.60;;;;111015;1249;41145;-67
2022/09/02 03:54:33;;;;;;;8.80;2.50;;;;;17.00;97411.20;;;;110871;1250;41755;-66
2022/09/02 03:57:04;;;;;;;5.20;2.10;;;;;17.00;97414.00;;;;110862;1250;41120;-66
2022/09/02 03:59:34;;;;;;;5.70;2.10;;;;;17.00;97417.20;;;;110628;1251;41749;-65
2022/09/02 04:02:03;;;;;;;4.10;1.90;;;;;17.00;97421.80;;;;110834;1251;41901;-65
2022/09/02 04:04:34;;;;;;;7.30;2.10;;;;;16.90;97423.00;;;;110803;1249;41130;-65
2022/09/02 04:07:03;;;;;;;5.10;1.80;;;;;16.90;97429.20;;;;110765;1249;41142;-66
2022/09/02 04:09:33;;;;;;;3.60;1.90;;;;;16.90;97433.60;;;;110616;1251;41231;-66
2022/09/02 04:12:04;;;;;;;4.60;1.70;;;;;16.90;97431.60;;;;110653;1251;41145;-68
2022/09/02 04:14:34;;;;;;;1.90;1.30;;;;;16.90;97431.60;;;;110546;1251;41142;-67
2022/09/02 04:17:04;;;;;;;3.30;1.50;;;;;16.90;97432.80;;;;110580;1252;42157;-66
2022/09/02 04:19:33;;;;;;;3.20;1.60;;;;;16.90;97437.40;;;;110562;1253;41252;-66
2022/09/02 04:22:02;;;;;;;5.10;1.90;;;;;16.90;97436.40;;;;110510;1254;41691;-67
2022/09/02 04:24:33;;;;;;;5.60;1.80;;;;;16.96;97437.40;;;;110566;1253;41156;-66
2022/09/02 04:27:03;;;;;;;2.00;1.40;;;;;17.00;97440.00;;;;110650;1251;41154;-66
2022/09/02 04:29:34;;;;;;;2.40;1.50;;;;;17.00;97441.40;;;;110658;1251;41699;-66
2022/09/02 04:32:03;;;;;;;3.30;1.50;;;;;17.00;97439.80;;;;110564;1251;41846;-66
2022/09/02 04:34:34;;;;;;;2.80;1.50;;;;;17.02;97443.60;;;;110797;1251;41194;-65
2022/09/02 04:37:04;;;;;;;3.30;1.50;;;;;17.08;97443.20;;;;110669;1250;41359;-65
2022/09/02 04:39:33;;;;;;;4.90;1.80;;;;;17.10;97441.80;;;;110609;1251;41173;-65
2022/09/02 04:42:03;;;;;;;2.80;1.60;;;;;17.10;97443.40;;;;110530;1252;41273;-65
2022/09/02 04:44:35;;;;;;;4.70;1.90;;;;;17.10;97438.40;;;;110681;1251;42286;-65
2022/09/02 04:47:05;;;;;;;3.70;1.60;;;;;17.00;97440.40;;;;110551;1251;41607;-66
2022/09/02 04:49:34;;;;;;;4.90;1.90;;;;;17.00;97444.20;;;;110563;1252;41729;-65
2022/09/02 04:52:03;;;;;;;4.80;1.70;;;;;17.00;97440.40;;;;110656;1251;42383;-66
2022/09/02 04:54:33;;;;;;;5.30;2.00;;;;;16.94;97441.40;;;;109309;1251;1624617;-67
2022/09/02 04:57:02;;;;;;;4.90;1.90;;;;;16.90;97438.40;;;;110798;1250;41178;-66
2022/09/02 04:59:35;;;;;;;4.80;1.90;;;;;16.80;97439.60;;;;110619;1251;41155;-66
2022/09/02 05:02:10;;;;;;;4.00;1.80;;;;;16.86;97438.60;;;;110523;1251;41614;-66
2022/09/02 05:04:40;;;;;;;3.50;1.60;;;;;16.90;97439.20;;;;110579;1251;41315;-65
2022/09/02 05:07:16;;;;;;;6.10;1.90;;;;;16.90;97441.40;;;;110650;1252;41143;-65
2022/09/02 05:09:46;;;;;;;5.70;1.90;;;;;16.92;97437.20;;;;110806;1250;41198;-67
2022/09/02 05:12:17;;;;;;;3.30;1.60;;;;;17.00;97441.00;;;;110879;1250;42341;-67
2022/09/02 05:14:55;;;;;;;2.90;1.70;;;;;17.00;97443.00;;;;110568;1251;41648;-66
2022/09/02 05:17:25;;;;;;;2.70;1.60;;;;;17.00;97443.60;;;;110579;1251;41260;-66
2022/09/02 05:19:55;;;;;;;2.20;1.50;;;;;17.00;97443.40;;;;110633;1251;41188;-67
2022/09/02 05:22:25;;;;;;;3.40;1.60;;;;;17.08;97441.60;;;;110600;1249;41321;-66
2022/09/02 05:24:56;;;;;;;4.40;1.90;;;;;17.10;97443.40;;;;110732;1249;41441;-66
2022/09/02 05:27:25;;;;;;;4.60;1.60;;;;;17.10;97445.00;;;;110769;1251;41850;-67
2022/09/02 05:29:55;;;;;;;3.10;1.60;;;;;17.10;97441.00;;;;110797;1251;41158;-65
2022/09/02 05:32:26;;;;;;;2.70;1.40;;;;;17.20;97441.80;;;;110827;1251;41635;-66
2022/09/02 05:34:56;;;;;;;2.40;1.60;;;;;17.20;97445.80;;;;110669;1250;41847;-67
2022/09/02 05:37:25;;;;;;;3.20;1.50;;;;;17.20;97445.00;;;;110752;1249;41254;-66
2022/09/02 05:39:55;;;;;;;3.40;1.70;;;;;17.22;97445.00;;;;110964;1249;41277;-65
2022/09/02 05:42:24;;;;;;;4.40;1.90;;;;;17.30;97444.20;;;;110644;1251;41143;-66
2022/09/02 05:44:54;;;;;;;5.00;2.10;;;;;17.30;97445.20;;;;110685;1250;41718;-67
2022/09/02 05:47:24;;;;;;;7.70;2.30;;;;;17.30;97448.80;;;;110768;1251;41176;-66
2022/09/02 05:49:53;;;;;;;5.90;2.50;;;;;17.30;97453.00;;;;111122;1249;41153;-66
2022/09/02 05:52:24;;;;;;;5.00;2.20;;;;;17.30;97449.00;;;;110931;1249;41148;-65
2022/09/02 05:54:54;;;;;;;5.90;2.40;;;;;17.24;97448.40;;;;110618;1251;41862;-66
2022/09/02 05:57:24;;;;;;;4.30;2.00;;;;;17.10;97453.40;;;;110721;1250;41747;-66
2022/09/02 06:00:06;;;;;;;4.80;2.00;;;;;17.06;97452.80;;;;110639;1250;41407;-66
2022/09/02 06:02:42;;;;;;;4.40;2.00;;;;;16.88;97456.00;;;;110683;1250;41600;-67
2022/09/02 06:05:17;;;;;;;4.50;1.90;;;;;16.80;97459.80;;;;110745;1249;41254;-65
2022/09/02 06:07:52;;;;;;;8.30;2.40;;;;;16.80;97462.60;;;;110864;1248;41439;-66
2022/09/02 06:10:22;;;;;;;4.40;1.80;;;;;16.76;97461.00;;;;110682;1249;41386;-66
2022/09/02 06:12:51;;;;;;;3.90;1.80;;;;;16.80;97462.00;;;;110736;1250;41635;-66
2022/09/02 06:15:25;;;;;;;3.40;1.80;;;;;16.80;97461.80;;;;110891;1249;41300;-68
2022/09/02 06:17:58;;;;;;;3.40;1.80;;;;;16.80;97463.80;;;;110803;1250;41733;-66
2022/09/02 06:20:31;;;;;;;3.70;1.80;;;;;16.90;97464.40;;;;110611;1250;41147;-67
2022/09/02 06:23:01;;;;;;;4.00;1.90;;;;;16.90;97471.80;;;;110800;1249;41167;-67
2022/09/02 06:25:30;;;;;;;3.90;2.20;;;;;16.90;97470.60;;;;110766;1250;41160;-65
2022/09/02 06:27:59;;;;;;;4.90;2.00;;;;;16.90;97476.60;;;;110735;1252;42385;-66
2022/09/02 06:30:37;;;;;;;5.00;1.90;;;;;16.80;97474.60;;;;110709;1251;41132;-63
2022/09/02 06:33:06;;;;;;;4.60;2.00;;;;;16.80;97480.00;;;;110589;1249;42419;-62
2022/09/02 06:35:37;;;;;;;4.00;1.90;;;;;16.90;97479.80;;;;110699;1249;41148;-62
2022/09/02 06:38:07;;;;;;;6.30;2.40;;;;;16.90;97487.80;;;;110675;1251;42389;-62
2022/09/02 06:40:45;;;;;;;8.50;2.50;;;;;16.80;97489.40;;;;110587;1253;41174;-62
2022/09/02 06:43:14;;;;;;;4.60;2.10;;;;;16.80;97495.20;;;;110587;1252;41728;-63
2022/09/02 06:46:02;;;;;;;5.30;2.10;;;;;16.88;97491.80;;;;110787;1250;41180;-62
2022/09/02 06:48:33;;;;;;;;;;;;;16.90;97495.40;;;;110670;1251;41895;-61
2022/09/02 06:51:02;;;;;;;4.00;2.10;;;;;16.90;97496.80;;;;110487;1251;41304;-62
2022/09/02 06:53:31;;;;;;;4.60;2.10;;;;;16.90;97500.40;;;;110802;1251;41153;-62
2022/09/02 06:56:00;;;;;;;4.90;2.20;;;;;16.90;97504.40;;;;110607;1251;41287;-62
2022/09/02 06:58:29;;;;;;;5.70;2.20;;;;;16.86;97506.60;;;;110739;1251;42078;-62
2022/09/02 07:00:58;;;;;;;4.60;2.00;;;;;16.70;97505.40;;;;110663;1250;41156;-62
2022/09/02 07:06:15;;;;;;;5.70;1.90;;;;;16.90;97504.40;;;;110672;1251;41275;-62
2022/09/02 07:08:46;;;;;;;;;;;;;16.90;97504.60;;;;110786;1248;41549;-62
2022/09/02 07:11:18;;;;;;;6.60;2.50;;;;;16.90;97507.00;;;;110948;1249;41376;-62
2022/09/02 07:13:49;;;;;;;5.50;2.50;;;;;16.74;97506.60;;;;110857;1251;41726;-61
2022/09/02 07:16:18;;;;;;;;;;;;;16.88;97509.00;;;;110603;1249;41972;-61
2022/09/02 07:18:50;;;;;;;6.00;2.40;;;;;16.90;97501.40;;;;110716;1251;41367;-62
2022/09/02 07:21:19;;;;;;;6.00;2.40;;;;;16.90;97503.00;;;;110598;1249;41156;-66
2022/09/02 07:23:49;;;;;;;6.90;2.30;;;;;16.96;97505.00;;;;110917;1248;41261;-63
2022/09/02 07:26:19;;;;;;;5.50;2.10;;;;;16.92;97503.00;;;;110645;1251;41410;-61
2022/09/02 07:28:51;;;;;;;5.60;2.50;;;;;17.00;97510.80;;;;110653;1250;41145;-61
2022/09/02 07:31:22;;;;;;;6.00;2.40;;;;;17.00;97511.60;;;;110645;1249;41366;-61
2022/09/02 07:33:55;;;;;;;6.50;2.20;;;;;16.96;97512.00;;;;110867;1249;41902;-61
2022/09/02 07:36:27;;;;;;;5.00;2.20;;;;;17.00;97514.80;;;;110768;1250;41153;-61
2022/09/02 07:38:56;;;;;;;5.60;2.40;;;;;17.00;97511.60;;;;110557;1251;41187;-61
2022/09/02 07:41:26;;;;;;;7.80;2.60;;;;;17.00;97507.80;;;;110672;1250;41148;-61
2022/09/02 07:43:55;;;;;;;5.40;2.20;;;;;17.00;97513.00;;;;110592;1251;41252;-62
2022/09/02 07:46:30;;;;;;;6.80;2.50;;;;;17.10;97514.80;;;;110665;1249;41146;-61
2022/09/02 07:49:00;;;;;;;6.10;2.40;;;;;17.10;97511.40;;;;110743;1249;41979;-61
2022/09/02 07:51:32;;;;;;;5.60;2.30;;;;;17.20;97516.60;;;;110574;1251;41267;-62
2022/09/02 07:54:02;;;;;;;6.10;2.40;;;;;17.30;97510.60;;;;110677;1251;41149;-62
2022/09/02 07:56:31;;;;;;;5.50;2.20;;;;;17.30;97507.60;;;;110675;1251;41276;-62
2022/09/02 07:59:01;;;;;;;5.30;2.20;;;;;17.40;97515.40;;;;110702;1249;41150;-62
2022/09/02 08:01:33;;;;;;;7.10;2.70;;;;;17.38;97512.80;;;;110683;1249;41818;-62
2022/09/02 08:04:03;;;;;;;6.30;2.40;;;;;17.40;97510.80;;;;110649;1250;41689;-62
2022/09/02 08:06:33;;;;;;;5.60;2.50;;;;;17.40;97504.60;;;;110661;1251;41133;-62
2022/09/02 08:09:05;;;;;;;7.10;2.30;;;;;17.22;97506.80;;;;110687;1249;42233;-62
2022/09/02 08:11:37;;;;;;;6.40;2.40;;;;;17.26;97506.60;;;;110637;1249;41174;-63
2022/09/02 08:14:08;;;;;;;4.90;2.00;;;;;17.30;97506.40;;;;110655;1249;41263;-63
2022/09/02 08:16:38;;;;;;;5.20;2.20;;;;;17.40;97511.00;;;;110708;1247;41646;-62
2022/09/02 08:19:08;;;;;;;6.70;2.60;;;;;17.42;97512.00;;;;110811;1250;41278;-62
2022/09/02 08:21:37;;;;;;;6.20;2.60;;;;;17.50;97517.80;;;;110672;1251;42072;-62
2022/09/02 08:24:05;;;;;;;5.30;2.20;;;;;17.62;97519.80;;;;110774;1249;41144;-62
2022/09/02 08:26:38;;;;;;;9.00;2.80;;;;;17.70;97519.20;;;;110995;1250;41138;-62
2022/09/02 08:29:08;;;;;;;7.70;2.60;;;;;17.64;97527.00;;;;110707;1250;41720;-61
2022/09/02 08:31:38;;;;;;;4.90;2.20;;;;;17.70;97523.40;;;;110609;1249;41143;-63
2022/09/02 08:34:07;;;;;;;9.70;2.70;;;;;17.78;97524.40;;;;110862;1249;41202;-63
2022/09/02 08:36:35;;;;;;;7.40;2.90;;;;;17.80;97520.60;;;;111059;1249;41254;-62
2022/09/02 08:39:04;;;;;;;6.70;2.30;;;;;17.64;97515.80;;;;110810;1249;41149;-62
2022/09/02 08:41:45;;;;;;;6.10;2.70;;;;;17.52;97517.80;;;;110927;1249;41162;-62
2022/09/02 08:44:20;;;;;;;6.50;2.40;;;;;17.50;97519.20;;;;110758;1249;41162;-62
2022/09/02 08:46:52;;;;;;;6.30;2.60;;;;;17.48;97512.20;;;;110905;1249;41162;-61
2022/09/02 08:49:26;;;;;;;7.00;2.70;;;;;17.48;97508.00;;;;110908;1250;41378;-62
2022/09/02 08:52:00;;;;;;;6.10;2.30;;;;;17.46;97508.00;;;;110971;1249;41780;-62
2022/09/02 08:54:52;;;;;;;6.60;2.60;;;;;17.44;97507.80;;;;110975;1249;41280;-62
2022/09/02 08:57:26;;;;;;;6.70;2.50;;;;;17.48;97502.80;;;;110683;1249;41170;-62
2022/09/02 08:59:57;;;;;;;7.80;3.20;;;;;17.38;97498.40;;;;110842;1250;41834;-62
2022/09/02 09:02:31;;;;;;;6.80;2.60;;;;;17.16;97497.40;;;;110790;1250;42067;-62
2022/09/02 09:05:09;;;;;;;6.10;2.40;;;;;17.08;97504.40;;;;110898;1250;41714;-62
2022/09/02 09:08:03;;;;;;;7.80;2.50;;;;;17.20;97500.20;;;;111015;1250;42401;-62
2022/09/02 09:10:32;;;;;;;9.00;2.80;;;;;17.26;97504.40;;;;110920;1250;41610;-62
2022/09/02 09:13:39;;;;;;;6.60;2.60;;;;;17.20;97502.40;;;;110936;1249;41719;-62
2022/09/02 09:16:14;;;;;;;8.10;2.60;;;;;17.22;97504.00;;;;110778;1250;41150;-63
2022/09/02 09:19:15;;;;;;;7.50;2.90;;;;;17.30;97505.40;;;;110913;1249;42911;-62
2022/09/02 09:21:44;;;;;;;7.60;2.70;;;;;17.20;97503.60;;;;110677;1251;41166;-62
2022/09/02 09:24:21;;;;;;;6.30;2.50;;;;;17.20;97514.60;;;;111006;1248;41153;-62
2022/09/02 09:26:52;;;;;;;7.40;2.50;;;;;17.02;97508.80;;;;111106;1249;41128;-62
2022/09/02 09:29:21;;;;;;;5.60;2.30;;;;;17.00;97510.60;;;;110747;1249;41734;-62
2022/09/02 09:31:56;;;;;;;5.60;2.50;;;;;17.08;97511.20;;;;110624;1250;41158;-62
2022/09/02 09:34:51;;;;;;;7.90;3.00;;;;;17.10;97502.80;;;;110996;1249;41145;-63
2022/09/02 09:37:31;;;;;;;6.50;2.60;;;;;17.20;97500.40;;;;111012;1249;42426;-62
2022/09/02 09:40:24;;;;;;;7.00;2.30;;;;;17.22;97501.80;;;;110835;1250;41153;-62
2022/09/02 09:43:04;;;;;;;5.90;2.50;;;;;17.30;97503.80;;;;111035;1248;42604;-62
2022/09/02 09:45:44;;;;;;;5.90;2.40;;;;;17.28;97498.00;;;;111081;1249;41146;-62
2022/09/02 09:48:22;;;;;;;7.50;2.60;;;;;17.20;97497.00;;;;110973;1248;41973;-62
2022/09/02 09:50:54;;;;;;;8.30;3.00;;;;;17.32;97497.60;;;;111025;1249;41199;-62
2022/09/02 09:53:26;;;;;;;9.40;2.40;;;;;17.34;97498.60;;;;110856;1249;41147;-62
2022/09/02 09:56:00;;;;;;;7.30;2.60;;;;;17.30;97506.20;;;;110796;1250;41146;-62
2022/09/02 09:58:33;;;;;;;6.50;2.40;;;;;17.20;97497.60;;;;110820;1251;42276;-62
2022/09/02 10:01:17;;;;;;;5.90;2.30;;;;;17.30;97503.40;;;;110603;1249;41270;-63
2022/09/02 10:03:54;;;;;;;6.20;2.50;;;;;17.30;97504.60;;;;110898;1249;42028;-62
2022/09/02 10:06:38;;;;;;;6.90;2.40;;;;;17.30;97506.80;;;;110836;1249;42384;-61
2022/09/02 10:09:13;;;;;;;7.10;2.40;;;;;17.34;97503.00;;;;110894;1249;41161;-62
2022/09/02 10:12:00;;;;;;;6.10;2.60;;;;;17.20;97496.40;;;;110785;1249;41159;-62
2022/09/02 10:14:43;;;;;;;6.90;2.50;;;;;17.10;97499.20;;;;110785;1249;41188;-62
2022/09/02 10:17:14;;;;;;;7.30;2.60;;;;;17.30;97502.20;;;;110756;1249;41136;-62
2022/09/02 10:20:15;;;;;;;9.20;3.20;;;;;17.30;97499.40;;;;110674;1250;41252;-62
2022/09/02 10:23:03;;;;;;;;;;;;;17.40;97502.60;;;;110856;1250;41213;-62
2022/09/02 10:25:59;;;;;;;7.30;2.80;;;;;17.34;97495.20;;;;110962;1251;41143;-64
2022/09/02 10:28:38;;;;;;;7.10;2.70;;;;;17.30;97495.00;;;;110901;1249;41620;-62
2022/09/02 10:31:25;;;;;;;6.00;2.40;;;;;17.30;97494.80;;;;110786;1249;41859;-62
2022/09/02 10:34:39;;;;;;;6.00;2.40;;;;;17.28;97496.80;;;;110779;1249;41273;-62
2022/09/02 10:37:07;;;;;;;7.00;2.60;;;;;17.16;97490.20;;;;110612;1249;41164;-62
2022/09/02 10:40:09;;;;;;;8.30;2.70;;;;;17.14;97489.20;;;;110738;1249;41166;-62
2022/09/02 10:42:50;;;;;;;8.50;3.00;;;;;17.30;97492.40;;;;110696;1249;41934;-62
2022/09/02 10:45:42;;;;;;;6.90;2.30;;;;;17.40;97489.40;;;;110753;1250;41200;-62
2022/09/02 10:48:29;;;;;;;8.00;2.50;;;;;17.50;97492.80;;;;110945;1249;42034;-62
2022/09/02 10:51:36;;;;;;;4.80;2.20;;;;;17.50;97491.00;;;;110877;1249;41551;-62
2022/09/02 10:54:13;;;;;;;6.80;2.60;;;;;17.60;97489.40;;;;110836;1249;41258;-62
2022/09/02 10:56:51;;;;;;;7.00;2.70;;;;;17.58;97489.60;;;;110709;1250;41827;-62
2022/09/02 10:59:32;;;;;;;6.20;2.60;;;;;17.60;97488.20;;;;110797;1250;41146;-63
2022/09/02 11:02:26;;;;;;;7.40;2.70;;;;;17.60;97492.60;;;;110821;1250;41210;-63
2022/09/02 11:05:03;;;;;;;5.80;2.50;;;;;17.56;97491.60;;;;110780;1251;41629;-62
2022/09/02 11:07:38;;;;;;;6.00;2.50;;;;;17.52;97490.80;;;;110704;1249;41625;-62
2022/09/02 11:10:11;;;;;;;8.50;2.80;;;;;17.60;97492.80;;;;110749;1251;41162;-63
2022/09/02 11:12:49;;;;;;;6.20;2.60;;;;;17.68;97491.00;;;;110697;1251;41330;-64
2022/09/02 11:15:26;;;;;;;7.80;3.20;;;;;17.60;97489.60;;;;110776;1252;41139;-65
2022/09/02 11:18:04;;;;;;;6.40;2.50;;;;;17.52;97487.20;;;;110789;1251;41232;-64
2022/09/02 11:20:35;;;;;;;6.90;2.40;;;;;17.48;97482.80;;;;110667;1252;41149;-61
2022/09/02 11:23:14;;;;;;;10.10;3.60;;;;;17.40;97486.20;;;;110831;1249;41155;-63
2022/09/02 11:26:20;;;;;;;8.50;3.40;;;;;17.40;97484.00;;;;110776;1251;41136;-63
2022/09/02 11:29:04;;;;;;;6.60;2.90;;;;;17.20;97481.40;;;;110809;1250;41146;-63
2022/09/02 11:31:46;;;;;;;8.70;3.60;;;;;17.30;97479.40;;;;110734;1252;41159;-62
2022/09/02 11:34:34;;;;;;;8.60;3.10;;;;;17.20;97476.20;;;;110625;1252;41267;-63
2022/09/02 11:37:07;;;;;;;8.60;3.40;;;;;17.30;97477.00;;;;110798;1250;41685;-67
2022/09/02 11:39:41;;;;;;;7.40;2.80;;;;;17.18;97469.80;;;;110720;1252;41273;-63
2022/09/02 11:43:03;;;;;;;6.80;2.40;;;;;17.28;97470.80;;;;110783;1249;41199;-65
2022/09/02 11:45:56;;;;;;;6.50;2.60;;;;;17.30;97469.20;;;;110876;1250;41307;-63
2022/09/02 11:48:47;;;;;;;5.20;2.40;;;;;17.32;97468.40;;;;110577;1250;41166;-63
2022/09/02 11:51:56;;;;;;;8.20;2.50;;;;;17.42;97463.40;;;;110641;1252;41158;-63
2022/09/02 11:54:45;;;;;;;6.20;2.40;;;;;17.30;97469.60;;;;110605;1251;41267;-64
2022/09/02 11:57:22;;;;;;;7.00;2.70;;;;;17.40;97462.20;;;;110429;1253;41261;-64
2022/09/02 11:59:55;;;;;;;6.00;2.40;;;;;17.36;97460.40;;;;110744;1251;41157;-63
2022/09/02 12:02:46;;;;;;;5.70;2.50;;;;;17.34;97458.40;;;;110662;1252;41146;-63
2022/09/02 12:05:31;;;;;;;7.10;3.10;;;;;17.40;97458.40;;;;110809;1251;41140;-63
2022/09/02 12:08:05;;;;;;;7.10;2.50;;;;;17.28;97453.00;;;;110801;1251;41547;-63
2022/09/02 12:10:42;;;;;;;6.00;2.60;;;;;17.06;97452.60;;;;110851;1251;41174;-63
2022/09/02 12:13:48;;;;;;;6.80;2.70;;;;;17.00;97455.60;;;;110899;1249;41618;-64
2022/09/02 12:16:21;;;;;;;6.00;2.60;;;;;17.02;97451.60;;;;110751;1250;41312;-63
2022/09/02 12:18:54;;;;;;;4.80;2.20;;;;;17.02;97451.80;;;;110729;1249;41163;-63
2022/09/02 12:21:30;;;;;;;6.40;2.60;;;;;17.18;97447.80;;;;110864;1249;41805;-65
2022/09/02 12:23:59;;;;;;;5.30;2.30;;;;;17.08;97450.40;;;;110647;1252;41151;-64
2022/09/02 12:26:40;;;;;;;7.00;2.40;;;;;17.10;97447.40;;;;110855;1249;41154;-63
2022/09/02 12:29:23;;;;;;;6.50;2.70;;;;;17.00;97446.00;;;;110780;1251;41542;-63
2022/09/02 12:31:54;;;;;;;7.10;2.60;;;;;17.06;97451.00;;;;110806;1250;41152;-63
2022/09/02 12:34:24;;;;;;;6.80;3.10;;;;;17.02;97445.80;;;;110884;1250;40934;-62
2022/09/02 12:36:55;;;;;;;6.30;2.40;;;;;17.00;97446.20;;;;110716;1250;41133;-63
2022/09/02 12:39:26;;;;;;;6.60;2.70;;;;;17.04;97442.80;;;;110821;1250;42168;-64
2022/09/02 12:42:12;;;;;;;6.90;2.60;;;;;16.96;97434.80;;;;110830;1249;41154;-65
2022/09/02 12:44:53;;;;;;;6.30;2.30;;;;;16.84;97436.80;;;;110759;1251;41146;-67
2022/09/02 12:47:45;;;;;;;6.80;2.40;;;;;16.96;97435.00;;;;110775;1251;41635;-62
2022/09/02 12:50:31;;;;;;;8.00;2.90;;;;;16.88;97438.60;;;;110867;1250;41282;-62